Time;durP1;ratioP1;P1;durP2;ratioP2;P2;SDS_P1;SDS_P2;PMS_P1;PMS_P2;Temp;Humidity;BMP_temperature;BMP_pressure;BME280_temperature;BME280_humidity;BME280_pressure;Samples;Min_cycle;Max_cycle;Signal;HPM_P1;HPM_P2
2021/06/09 00:01:54;;;;;;;11.70;10.60;;;;;;;19.11;65.57;98375.69;8416818;28;20210;-92
2021/06/09 00:05:56;;;;;;;13.23;11.00;;;;;;;19.10;65.65;98368.78;8416664;28;20231;-91
2021/06/09 00:09:59;;;;;;;13.40;11.97;;;;;;;19.01;66.18;98351.91;8416625;28;20203;-91
2021/06/09 00:14:04;;;;;;;14.23;11.57;;;;;;;18.99;65.92;98361.66;8416292;28;20206;-91
2021/06/09 00:18:07;;;;;;;12.60;11.30;;;;;;;19.07;65.19;98347.97;8416526;28;20234;-91
2021/06/09 00:22:09;;;;;;;13.10;10.53;;;;;;;18.97;65.43;98347.00;8417289;28;20294;-92
2021/06/09 00:26:13;;;;;;;13.47;10.70;;;;;;;18.99;65.86;98350.34;8418605;28;20269;-92
2021/06/09 00:30:21;;;;;;;10.97;9.80;;;;;;;19.00;65.54;98344.13;8411418;28;20196;-92
2021/06/09 00:34:23;;;;;;;18.77;12.00;;;;;;;18.91;65.57;98348.28;8422384;28;20188;-92
2021/06/09 00:38:26;;;;;;;13.27;12.03;;;;;;;18.75;66.15;98344.09;8432741;28;20509;-94
2021/06/09 00:42:29;;;;;;;13.53;11.63;;;;;;;18.77;66.45;98346.59;8415686;28;20516;-93
2021/06/09 00:46:34;;;;;;;12.90;11.60;;;;;;;18.71;65.83;98347.03;8417498;28;20199;-92
2021/06/09 00:50:37;;;;;;;13.07;11.60;;;;;;;18.69;65.99;98341.06;8418122;28;20227;-92
2021/06/09 00:54:39;;;;;;;11.57;10.40;;;;;;;18.72;66.11;98338.22;8417337;28;20203;-93
2021/06/09 00:58:43;;;;;;;11.53;10.43;;;;;;;18.71;66.10;98340.00;8418867;28;20227;-96
2021/06/09 01:02:48;;;;;;;13.20;10.50;;;;;;;18.72;65.78;98333.00;8433794;28;20205;-95
2021/06/09 01:06:50;;;;;;;10.83;9.93;;;;;;;18.78;65.81;98336.97;8442846;22;20223;-64
2021/06/09 01:10:53;;;;;;;14.20;11.23;;;;;;;18.79;65.61;98342.09;8421755;28;20229;-62
2021/06/09 01:14:55;;;;;;;13.50;10.67;;;;;;;18.81;65.82;98342.84;8421636;28;20521;-61
2021/06/09 01:18:59;;;;;;;16.90;11.10;;;;;;;18.79;66.03;98339.47;8421220;28;20227;-62
2021/06/09 01:23:04;;;;;;;15.57;11.00;;;;;;;18.70;66.21;98330.47;8421187;28;20204;-62
2021/06/09 01:27:07;;;;;;;15.40;11.40;;;;;;;18.68;66.20;98337.63;8420857;28;20215;-61
2021/06/09 01:31:09;;;;;;;12.90;11.20;;;;;;;18.63;66.46;98349.38;8420778;28;20199;-62
2021/06/09 01:35:12;;;;;;;12.63;10.90;;;;;;;18.58;66.75;98346.25;8420690;28;20206;-62
2021/06/09 01:39:18;;;;;;;12.37;10.57;;;;;;;18.62;66.48;98348.56;8420869;28;20234;-62
2021/06/09 01:43:20;;;;;;;11.10;10.00;;;;;;;18.68;66.27;98349.91;8420485;28;20199;-61
2021/06/09 01:47:24;;;;;;;14.60;11.47;;;;;;;18.70;66.11;98355.88;8420120;28;20202;-61
2021/06/09 01:51:27;;;;;;;14.07;10.70;;;;;;;18.64;66.65;98349.28;8420656;28;20199;-61
2021/06/09 01:55:32;;;;;;;15.30;11.23;;;;;;;18.69;66.69;98355.00;8420191;28;20423;-62
2021/06/09 01:59:35;;;;;;;15.60;10.33;;;;;;;18.72;66.97;98353.97;8420042;28;20560;-61
2021/06/09 02:03:37;;;;;;;14.97;11.53;;;;;;;18.68;67.23;98363.00;8419907;28;20210;-62
2021/06/09 02:07:41;;;;;;;12.50;11.20;;;;;;;18.76;67.24;98365.91;8419688;28;20239;-62
2021/06/09 02:11:45;;;;;;;19.27;12.80;;;;;;;18.73;67.71;98364.38;8419630;28;20199;-62
2021/06/09 02:15:53;;;;;;;15.80;12.57;;;;;;;18.71;67.69;98365.41;8419241;28;20199;-62
2021/06/09 02:19:56;;;;;;;14.30;12.77;;;;;;;18.80;67.70;98372.66;8419423;28;20429;-62
2021/06/09 02:23:58;;;;;;;14.30;12.90;;;;;;;18.87;67.61;98366.03;8419286;28;20207;-62
2021/06/09 02:28:03;;;;;;;14.73;13.30;;;;;;;18.84;67.95;98371.47;8419119;28;20204;-62
2021/06/09 02:32:06;;;;;;;14.50;12.97;;;;;;;18.86;68.14;98381.88;8419036;28;20201;-62
2021/06/09 02:36:09;;;;;;;14.80;12.70;;;;;;;18.73;68.80;98376.63;8418862;28;20218;-62
2021/06/09 02:40:12;;;;;;;16.30;14.63;;;;;;;18.71;69.53;98370.66;8418785;28;20203;-62
2021/06/09 02:44:16;;;;;;;15.03;13.63;;;;;;;18.81;69.10;98373.47;8418579;28;20203;-62
2021/06/09 02:48:22;;;;;;;15.17;13.60;;;;;;;18.86;68.75;98366.97;8418526;28;20366;-62
2021/06/09 02:52:28;;;;;;;16.93;15.23;;;;;;;18.79;69.09;98368.34;8418323;28;20362;-62
2021/06/09 02:56:38;;;;;;;16.73;13.77;;;;;;;18.85;69.01;98377.56;8418353;28;20405;-62
2021/06/09 03:00:50;;;;;;;16.10;14.50;;;;;;;18.89;69.04;98366.75;8418609;28;20505;-62
2021/06/09 03:04:54;;;;;;;17.13;13.93;;;;;;;18.92;69.47;98360.44;8418046;28;20199;-62
2021/06/09 03:09:02;;;;;;;16.10;14.40;;;;;;;18.89;69.46;98358.03;8417531;28;20234;-62
2021/06/09 03:13:08;;;;;;;18.27;16.33;;;;;;;18.75;70.67;98349.34;8417446;28;20206;-62
2021/06/09 03:17:14;;;;;;;17.87;16.00;;;;;;;18.89;69.86;98345.75;8417549;28;20250;-62
2021/06/09 03:21:20;;;;;;;19.70;17.83;;;;;;;18.89;69.94;98345.75;8417522;28;20362;-62
2021/06/09 03:25:40;;;;;;;18.63;16.83;;;;;;;18.77;70.47;98338.72;8416554;28;20206;-62
2021/06/09 03:29:47;;;;;;;19.73;17.83;;;;;;;18.72;70.54;98336.44;8417116;28;20509;-62
2021/06/09 03:33:52;;;;;;;20.50;18.43;;;;;;;18.98;69.84;98338.16;8416961;28;20206;-62
2021/06/09 03:37:57;;;;;;;17.63;15.80;;;;;;;19.07;69.45;98340.94;8416602;28;20533;-62
2021/06/09 03:42:01;;;;;;;21.20;16.27;;;;;;;19.05;69.87;98357.75;8416628;28;20199;-62
2021/06/09 03:46:06;;;;;;;18.53;16.47;;;;;;;19.08;69.61;98349.66;8416679;28;20217;-62
2021/06/09 03:50:11;;;;;;;17.20;15.47;;;;;;;19.13;69.73;98347.53;8416522;28;20394;-63
2021/06/09 03:54:14;;;;;;;16.30;14.57;;;;;;;19.15;69.36;98356.13;8416846;28;20206;-62
2021/06/09 03:58:17;;;;;;;18.63;16.03;;;;;;;19.16;69.39;98357.81;8416285;28;20234;-62
2021/06/09 04:02:20;;;;;;;17.80;16.07;;;;;;;19.16;69.70;98363.06;8416288;28;20425;-62
2021/06/09 04:06:25;;;;;;;18.67;16.87;;;;;;;19.21;69.71;98357.47;8416336;28;20550;-62
2021/06/09 04:10:28;;;;;;;18.53;16.67;;;;;;;19.03;70.69;98360.50;8415962;28;20564;-62
2021/06/09 04:14:34;;;;;;;19.70;17.80;;;;;;;19.13;70.19;98366.75;8416140;28;20207;-62
2021/06/09 04:18:37;;;;;;;20.93;18.47;;;;;;;19.19;70.15;98377.75;8416159;28;20233;-62
2021/06/09 04:22:41;;;;;;;20.43;18.33;;;;;;;19.24;70.10;98378.25;8415985;28;20285;-63
2021/06/09 04:26:44;;;;;;;19.57;17.63;;;;;;;19.20;70.37;98387.31;8416246;28;20206;-62
2021/06/09 04:30:48;;;;;;;19.40;17.57;;;;;;;19.24;70.08;98392.22;8415751;28;20207;-63
2021/06/09 04:34:52;;;;;;;20.17;18.13;;;;;;;19.16;70.56;98399.00;8415877;28;20392;-62
2021/06/09 04:38:56;;;;;;;21.77;18.87;;;;;;;19.26;70.22;98395.56;8418883;28;20234;-62
2021/06/09 04:42:58;;;;;;;22.43;19.23;;;;;;;19.25;70.74;98390.44;8422286;28;20199;-62
2021/06/09 04:47:01;;;;;;;20.53;18.37;;;;;;;19.19;70.80;98381.22;8422682;28;20226;-62
2021/06/09 04:51:04;;;;;;;24.07;20.87;;;;;;;19.19;71.03;98391.72;8422300;28;20361;-62
2021/06/09 04:55:09;;;;;;;24.20;20.53;;;;;;;19.23;70.69;98392.31;8357155;28;20216;-62
2021/06/09 04:59:12;;;;;;;22.13;19.80;;;;;;;19.18;70.85;98383.97;8355936;28;20231;-63
2021/06/09 05:03:15;;;;;;;20.93;18.83;;;;;;;19.15;71.71;98392.88;8383404;28;20199;-63
2021/06/09 05:07:17;;;;;;;21.53;18.93;;;;;;;19.27;70.94;98397.25;8421283;28;20239;-63
2021/06/09 05:11:27;;;;;;;21.77;19.53;;;;;;;19.27;70.73;98399.88;8421925;28;20211;-62
2021/06/09 05:15:30;;;;;;;17.87;16.07;;;;;;;19.24;70.10;98404.50;8421599;28;20206;-63
2021/06/09 05:19:34;;;;;;;18.53;16.60;;;;;;;19.26;70.36;98399.97;8393915;28;20230;-63
2021/06/09 05:23:39;;;;;;;12.33;10.93;;;;;;;19.26;69.15;98410.47;8383217;28;20518;-63
2021/06/09 05:27:44;;;;;;;11.70;10.23;;;;;;;19.04;69.51;98412.06;8387645;28;20204;-63
2021/06/09 05:31:49;;;;;;;13.13;9.70;;;;;;;19.11;69.48;98415.06;8387905;28;20226;-63
2021/06/09 05:35:54;;;;;;;9.50;8.70;;;;;;;19.20;69.11;98411.75;8387762;28;20200;-63
2021/06/09 05:39:59;;;;;;;10.33;9.33;;;;;;;19.19;69.02;98411.88;8387259;28;20229;-63
2021/06/09 05:44:03;;;;;;;11.00;9.90;;;;;;;19.26;69.02;98413.94;8387326;28;20204;-63
2021/06/09 05:48:06;;;;;;;11.30;10.20;;;;;;;19.13;68.94;98414.00;8386488;28;20395;-64
2021/06/09 05:52:09;;;;;;;12.50;9.93;;;;;;;19.21;69.04;98412.59;8387106;28;20235;-64
2021/06/09 05:56:12;;;;;;;12.40;11.10;;;;;;;19.25;69.13;98416.69;8387015;28;20537;-64
2021/06/09 06:00:18;;;;;;;12.77;11.23;;;;;;;19.28;69.22;98411.22;8386724;28;20561;-64
2021/06/09 06:04:20;;;;;;;14.07;12.30;;;;;;;19.32;68.88;98410.03;8409611;28;20206;-64
2021/06/09 06:08:23;;;;;;;17.13;14.03;;;;;;;19.31;69.77;98403.13;8419446;28;20251;-64
2021/06/09 06:12:26;;;;;;;15.30;13.30;;;;;;;19.27;69.77;98418.25;8419509;28;20204;-64
2021/06/09 06:16:30;;;;;;;14.97;13.43;;;;;;;19.29;70.12;98412.91;8419777;28;20366;-64
2021/06/09 06:20:33;;;;;;;14.87;13.37;;;;;;;19.39;69.69;98415.69;8419535;28;20287;-64
2021/06/09 06:24:40;;;;;;;13.73;12.30;;;;;;;19.46;69.51;98409.03;8419328;28;20486;-63
2021/06/09 06:28:42;;;;;;;13.87;12.47;;;;;;;19.42;70.34;98415.44;8419345;28;20210;-64
2021/06/09 06:32:47;;;;;;;13.37;12.17;;;;;;;19.52;69.59;98414.66;8418915;28;20203;-63
2021/06/09 06:36:49;;;;;;;14.20;12.83;;;;;;;19.53;70.16;98412.84;8419069;28;20575;-64
2021/06/09 06:40:52;;;;;;;14.70;13.30;;;;;;;19.55;69.97;98410.97;8418648;28;20231;-64
2021/06/09 06:44:54;;;;;;;14.13;12.83;;;;;;;19.70;69.87;98420.34;8418569;28;20203;-64
2021/06/09 06:48:59;;;;;;;17.17;15.37;;;;;;;19.79;70.10;98416.22;8418445;28;20204;-64
2021/06/09 06:53:06;;;;;;;19.93;18.13;;;;;;;19.85;70.14;98414.91;8418223;28;20201;-63
2021/06/09 06:57:08;;;;;;;21.20;19.27;;;;;;;19.90;70.04;98411.00;8418111;28;20199;-64
2021/06/09 07:01:11;;;;;;;25.33;22.93;;;;;;;19.94;71.28;98413.41;8401376;28;20212;-64
2021/06/09 07:05:15;;;;;;;24.10;21.50;;;;;;;20.07;70.67;98422.03;8412273;28;20273;-64
2021/06/09 07:09:19;;;;;;;26.33;23.77;;;;;;;19.96;71.80;98424.63;8418071;28;20230;-63
2021/06/09 07:13:22;;;;;;;29.47;25.80;;;;;;;20.02;71.57;98419.72;8417109;28;20206;-63
2021/06/09 07:17:25;;;;;;;25.67;23.20;;;;;;;20.04;71.69;98422.25;8417904;28;20422;-64
2021/06/09 07:21:29;;;;;;;22.27;20.17;;;;;;;20.07;70.33;98427.28;8417287;28;20403;-63
2021/06/09 07:25:32;;;;;;;20.93;18.93;;;;;;;20.09;70.52;98420.13;8417494;28;20221;-63
2021/06/09 07:29:36;;;;;;;22.27;20.10;;;;;;;20.14;70.78;98425.00;8417207;28;20210;-63
2021/06/09 07:33:45;;;;;;;21.60;19.30;;;;;;;20.10;71.37;98421.78;8417274;28;20513;-63
2021/06/09 07:37:51;;;;;;;22.63;19.73;;;;;;;20.28;70.69;98419.53;8417272;28;20230;-63
2021/06/09 07:41:55;;;;;;;21.13;19.03;;;;;;;20.18;71.30;98434.34;8417232;28;20283;-63
2021/06/09 07:45:58;;;;;;;20.17;18.27;;;;;;;20.35;70.71;98435.66;8416446;28;20206;-63
2021/06/09 07:50:03;;;;;;;19.03;17.23;;;;;;;20.35;70.95;98435.66;8380622;28;20437;-63
2021/06/09 07:54:07;;;;;;;17.10;15.50;;;;;;;20.57;70.28;98426.97;8350194;28;20244;-63
2021/06/09 07:58:11;;;;;;;18.90;16.80;;;;;;;20.64;70.84;98429.03;8350196;28;20231;-63
2021/06/09 08:02:17;;;;;;;17.57;15.97;;;;;;;20.62;70.51;98433.56;8361157;28;20507;-63
2021/06/09 08:06:20;;;;;;;14.43;13.00;;;;;;;20.78;69.76;98424.47;8416292;28;20220;-63
2021/06/09 08:10:24;;;;;;;18.80;9.63;;;;;;;20.97;66.90;98424.66;8383817;28;20246;-65
2021/06/09 08:14:27;;;;;;;10.00;8.03;;;;;;;21.22;66.08;98431.44;8382943;28;20212;-65
2021/06/09 08:18:29;;;;;;;12.13;8.43;;;;;;;21.40;65.01;98438.81;8382659;28;20522;-65
2021/06/09 08:22:32;;;;;;;10.40;6.87;;;;;;;21.40;64.68;98446.69;8382706;28;20202;-65
2021/06/09 08:26:36;;;;;;;11.10;7.73;;;;;;;21.47;63.67;98450.53;8382778;28;20362;-64
2021/06/09 08:30:38;;;;;;;10.43;7.23;;;;;;;21.54;64.51;98454.38;8382526;28;20274;-65
2021/06/09 08:34:42;;;;;;;7.33;6.53;;;;;;;21.61;63.88;98452.91;8382642;28;20200;-65
2021/06/09 08:38:45;;;;;;;8.80;6.10;;;;;;;21.65;63.18;98462.22;8355904;28;20241;-64
2021/06/09 08:42:50;;;;;;;10.23;6.80;;;;;;;21.72;62.40;98459.09;8349408;28;20200;-65
2021/06/09 08:46:57;;;;;;;6.70;5.63;;;;;;;21.70;62.34;98459.19;8349188;28;20203;-65
2021/06/09 08:50:59;;;;;;;7.93;4.93;;;;;;;21.68;61.66;98458.50;8349313;28;20230;-65
2021/06/09 08:55:02;;;;;;;10.10;5.13;;;;;;;21.82;62.30;98463.47;8349076;28;20525;-66
2021/06/09 08:59:06;;;;;;;7.93;4.20;;;;;;;21.88;61.30;98459.50;8349073;28;20231;-66
2021/06/09 09:03:08;;;;;;;5.13;3.70;;;;;;;21.86;60.84;98462.25;8375054;28;20214;-66
2021/06/09 09:07:12;;;;;;;4.60;3.93;;;;;;;21.95;61.02;98457.16;8414830;28;20242;-65
2021/06/09 09:11:14;;;;;;;7.47;4.47;;;;;;;22.10;61.28;98452.41;8415251;28;20213;-65
2021/06/09 09:15:18;;;;;;;6.60;4.00;;;;;;;22.18;60.99;98452.59;8415215;28;20365;-65
2021/06/09 09:19:28;;;;;;;3.90;3.30;;;;;;;22.04;59.65;98453.78;8414944;28;20241;-65
2021/06/09 09:23:30;;;;;;;7.80;3.47;;;;;;;22.19;60.38;98447.19;8415388;28;20206;-65
2021/06/09 09:27:33;;;;;;;8.17;3.47;;;;;;;22.25;60.08;98451.97;8420823;28;20226;-65
2021/06/09 09:31:49;;;;;;;9.10;3.83;;;;;;;22.41;59.88;98450.69;8421011;28;20316;-67
2021/06/09 09:35:52;;;;;;;6.60;3.27;;;;;;;22.61;59.22;98459.53;8420365;28;20184;-66
2021/06/09 09:40:07;;;;;;;8.10;3.40;;;;;;;22.70;57.92;98450.00;8420820;28;20228;-65
2021/06/09 09:44:09;;;;;;;4.27;2.87;;;;;;;23.53;54.04;98448.81;8420281;28;20209;-67
2021/06/09 09:48:16;;;;;;;4.97;3.20;;;;;;;24.46;53.31;98453.59;8420651;28;20206;-66
2021/06/09 09:52:19;;;;;;;2.80;2.60;;;;;;;24.08;55.17;98450.88;8420717;28;20195;-64
2021/06/09 09:56:40;;;;;;;3.07;2.80;;;;;;;23.84;53.08;98458.44;8420256;28;20203;-63
2021/06/09 10:00:42;;;;;;;4.97;2.73;;;;;;;23.24;51.86;98454.06;8419981;28;20230;-64
2021/06/09 10:04:49;;;;;;;2.57;2.37;;;;;;;23.54;51.62;98457.56;8420137;28;20204;-64
2021/06/09 10:08:53;;;;;;;2.93;2.50;;;;;;;23.40;52.22;98450.91;8419853;28;20541;-63
2021/06/09 10:13:10;;;;;;;5.53;3.03;;;;;;;23.90;53.65;98457.88;8419637;28;20199;-64
2021/06/09 10:17:14;;;;;;;4.73;3.10;;;;;;;24.25;51.66;98457.25;8419709;28;20201;-63
2021/06/09 10:21:18;;;;;;;5.53;2.97;;;;;;;24.31;52.26;98462.00;8419633;28;20228;-64
2021/06/09 10:25:20;;;;;;;2.83;2.60;;;;;;;24.77;50.83;98451.56;8419453;28;20199;-63
2021/06/09 10:29:23;;;;;;;3.53;3.23;;;;;;;24.62;50.53;98448.56;8419114;28;20390;-63
2021/06/09 10:33:26;;;;;;;3.93;3.10;;;;;;;24.51;50.25;98446.91;8419038;28;20200;-66
2021/06/09 10:37:30;;;;;;;4.00;3.50;;;;;;;24.27;49.13;98439.41;8419228;28;20209;-66
2021/06/09 10:41:32;;;;;;;4.30;2.90;;;;;;;25.29;49.86;98443.06;8418464;28;20519;-64
2021/06/09 10:45:36;;;;;;;8.43;3.60;;;;;;;25.89;48.34;98439.78;8418266;28;20217;-65
2021/06/09 10:49:41;;;;;;;7.20;3.10;;;;;;;26.07;47.60;98435.31;8418498;28;20211;-64
2021/06/09 10:53:45;;;;;;;4.17;2.30;;;;;;;26.02;46.67;98437.59;8418065;28;20210;-64
2021/06/09 10:57:49;;;;;;;5.63;2.40;;;;;;;26.17;46.47;98432.56;8418169;28;20207;-64
2021/06/09 11:01:56;;;;;;;2.40;2.20;;;;;;;26.38;45.32;98431.34;8417774;28;20240;-64
2021/06/09 11:06:01;;;;;;;2.87;2.60;;;;;;;26.62;46.67;98423.53;8418243;28;20559;-64
2021/06/09 11:10:08;;;;;;;5.83;2.57;;;;;;;26.36;44.12;98420.06;8417642;28;20434;-64
2021/06/09 11:14:22;;;;;;;3.00;2.70;;;;;;;26.72;43.64;98421.59;8417529;28;20247;-64
2021/06/09 11:18:34;;;;;;;4.23;2.60;;;;;;;27.01;42.53;98416.88;8417429;28;20202;-63
2021/06/09 11:22:40;;;;;;;3.97;2.20;;;;;;;27.21;45.90;98415.59;8417357;28;20412;-65
2021/06/09 11:26:44;;;;;;;3.43;2.37;;;;;;;27.26;43.91;98409.81;8417271;28;20516;-65
2021/06/09 11:30:55;;;;;;;3.00;2.50;;;;;;;26.78;42.57;98406.84;8371959;28;20198;-64
2021/06/09 11:34:59;;;;;;;4.93;2.77;;;;;;;26.65;43.46;98401.13;8366841;28;20193;-64
2021/06/09 11:39:05;;;;;;;4.77;2.37;;;;;;;27.16;42.98;98393.16;8366522;28;20219;-64
2021/06/09 11:43:19;;;;;;;2.67;2.47;;;;;;;27.10;42.47;98387.50;8369004;28;20204;-64
2021/06/09 11:47:25;;;;;;;2.70;2.50;;;;;;;26.07;44.34;98378.75;8377299;28;20517;-65
2021/06/09 11:51:32;;;;;;;11.43;3.23;;;;;;;25.52;43.80;98371.88;8366378;28;20198;-65
2021/06/09 11:55:34;;;;;;;3.37;2.80;;;;;;;25.24;45.48;98360.50;8366285;28;20206;-64
2021/06/09 11:59:39;;;;;;;3.70;2.90;;;;;;;25.12;45.69;98357.22;8365953;28;20255;-65
2021/06/09 12:03:42;;;;;;;4.67;3.10;;;;;;;25.11;46.15;98344.94;8368046;28;20398;-65
2021/06/09 12:07:45;;;;;;;6.27;3.10;;;;;;;24.97;48.13;98346.31;8374657;28;20236;-67
2021/06/09 12:11:49;;;;;;;7.77;3.20;;;;;;;24.70;47.78;98345.38;8382627;28;20208;-65
2021/06/09 12:16:13;;;;;;;5.70;3.60;;;;;;;24.68;49.10;98342.03;8382735;28;20512;-64
2021/06/09 12:20:18;;;;;;;3.43;3.10;;;;;;;24.61;48.78;98340.97;8382528;28;20234;-64
2021/06/09 12:24:20;;;;;;;5.97;3.80;;;;;;;24.52;49.11;98333.91;8382764;28;20505;-65
2021/06/09 12:28:24;;;;;;;8.47;3.80;;;;;;;25.75;47.84;98333.25;8372433;28;20205;-64
2021/06/09 12:32:29;;;;;;;3.80;3.23;;;;;;;26.30;46.96;98326.78;8366803;28;20201;-65
2021/06/09 12:36:32;;;;;;;3.97;3.40;;;;;;;26.51;46.87;98330.84;8356474;28;20213;-63
2021/06/09 12:40:35;;;;;;;5.50;3.80;;;;;;;26.69;44.46;98325.44;8382530;28;20234;-63
2021/06/09 12:44:42;;;;;;;5.03;3.20;;;;;;;27.14;44.93;98336.69;8382211;28;20196;-63
2021/06/09 12:48:50;;;;;;;4.17;3.47;;;;;;;26.47;47.43;98345.44;8382316;28;20200;-63
2021/06/09 12:52:53;;;;;;;3.83;3.53;;;;;;;27.08;45.93;98338.97;8382417;28;20210;-63
2021/06/09 12:56:56;;;;;;;4.73;3.63;;;;;;;27.14;43.38;98331.34;8382164;28;20204;-63
2021/06/09 13:00:59;;;;;;;5.67;3.20;;;;;;;27.19;43.07;98337.00;8387000;28;20227;-64
2021/06/09 13:05:13;;;;;;;3.67;3.37;;;;;;;27.05;44.86;98341.13;8386054;28;20211;-65
2021/06/09 13:09:20;;;;;;;3.30;3.10;;;;;;;26.42;45.36;98334.47;8388907;28;20241;-65
2021/06/09 13:13:22;;;;;;;3.87;3.57;;;;;;;25.89;46.47;98347.78;8388656;28;20202;-65
2021/06/09 13:17:25;;;;;;;4.50;3.50;;;;;;;26.92;43.56;98333.63;8388390;28;20207;-65
2021/06/09 13:21:32;;;;;;;4.33;3.53;;;;;;;27.35;40.69;98329.06;8388162;28;20531;-66
2021/06/09 13:25:35;;;;;;;5.87;3.80;;;;;;;27.45;39.67;98327.06;8387978;28;20201;-65
2021/06/09 13:29:40;;;;;;;3.60;3.30;;;;;;;27.78;40.24;98324.38;8405514;28;20400;-65
2021/06/09 13:33:43;;;;;;;4.93;3.37;;;;;;;27.92;41.32;98322.88;8397970;28;20516;-65
2021/06/09 13:37:49;;;;;;;3.90;3.50;;;;;;;27.61;37.57;98312.09;8369497;28;20210;-65
2021/06/09 13:41:53;;;;;;;4.17;3.77;;;;;;;27.51;37.56;98306.94;8374991;28;20233;-64
2021/06/09 13:45:58;;;;;;;4.23;3.83;;;;;;;26.81;40.01;98305.56;8354196;28;20201;-64
2021/06/09 13:50:03;;;;;;;4.83;3.30;;;;;;;26.57;41.97;98308.13;8354000;28;20219;-64
2021/06/09 13:54:07;;;;;;;4.40;4.00;;;;;;;27.07;42.96;98315.22;8378184;28;20510;-64
2021/06/09 13:58:22;;;;;;;5.43;3.60;;;;;;;27.11;42.08;98312.09;8356504;28;20199;-64
2021/06/09 14:02:27;;;;;;;4.20;3.77;;;;;;;26.65;43.02;98310.84;8353582;28;20223;-64
2021/06/09 14:06:30;;;;;;;4.83;3.60;;;;;;;26.12;43.30;98310.09;8353771;28;20425;-64
2021/06/09 14:10:36;;;;;;;6.90;3.93;;;;;;;26.53;42.63;98294.34;8353299;28;20243;-64
2021/06/09 14:14:39;;;;;;;3.20;2.90;;;;;;;26.16;42.02;98292.88;8379164;28;20389;-65
2021/06/09 14:18:41;;;;;;;4.70;3.30;;;;;;;25.71;42.11;98294.75;8386456;28;20217;-64
2021/06/09 14:22:45;;;;;;;4.10;3.40;;;;;;;25.49;42.06;98284.66;8386169;28;20230;-64
2021/06/09 14:26:49;;;;;;;4.60;3.37;;;;;;;25.46;41.90;98285.00;8385581;28;20216;-64
2021/06/09 14:30:53;;;;;;;3.53;3.10;;;;;;;25.44;43.37;98279.03;8361754;28;20196;-64
2021/06/09 14:35:10;;;;;;;5.07;3.30;;;;;;;25.67;44.60;98268.72;8368804;28;20194;-64
2021/06/09 14:39:14;;;;;;;3.40;3.10;;;;;;;26.29;44.58;98261.44;8368509;28;20198;-64
2021/06/09 14:43:18;;;;;;;4.57;3.60;;;;;;;26.44;44.25;98258.94;8356602;28;20197;-64
2021/06/09 14:47:33;;;;;;;3.60;3.17;;;;;;;26.64;44.11;98256.88;8352421;28;20203;-64
2021/06/09 14:51:36;;;;;;;5.37;3.10;;;;;;;25.91;42.48;98258.28;8352699;28;20189;-65
2021/06/09 14:55:38;;;;;;;6.67;4.00;;;;;;;25.64;44.96;98266.38;8380739;28;20206;-64
2021/06/09 14:59:54;;;;;;;3.50;3.10;;;;;;;25.35;43.07;98264.88;8384918;28;20227;-63
2021/06/09 15:03:56;;;;;;;4.00;3.60;;;;;;;25.20;46.05;98277.78;8378484;28;20245;-64
2021/06/09 15:07:59;;;;;;;3.70;3.40;;;;;;;25.02;46.92;98275.19;8384601;28;20235;-64
2021/06/09 15:12:02;;;;;;;5.40;3.40;;;;;;;24.91;46.18;98262.16;8384671;28;20207;-64
2021/06/09 15:16:07;;;;;;;3.83;3.53;;;;;;;24.83;47.77;98259.41;8384563;28;20201;-64
2021/06/09 15:20:09;;;;;;;4.23;3.83;;;;;;;24.76;48.83;98252.09;8384453;28;20306;-64
2021/06/09 15:24:12;;;;;;;3.90;3.57;;;;;;;24.68;48.93;98252.00;8383622;28;20206;-64
2021/06/09 15:28:14;;;;;;;5.03;3.90;;;;;;;24.58;48.70;98246.78;8384218;28;20486;-64
2021/06/09 15:32:18;;;;;;;4.23;3.37;;;;;;;24.49;49.25;98247.66;8383879;28;20208;-64
2021/06/09 15:36:20;;;;;;;4.40;3.03;;;;;;;24.47;50.39;98246.16;8383949;28;20201;-64
2021/06/09 15:40:23;;;;;;;3.80;3.47;;;;;;;24.35;50.09;98249.00;8404161;28;20593;-64
2021/06/09 15:44:25;;;;;;;4.37;3.10;;;;;;;24.27;50.37;98254.19;8416978;28;20493;-64
2021/06/09 15:48:29;;;;;;;3.50;3.20;;;;;;;24.18;50.98;98253.28;8416457;28;20295;-64
2021/06/09 15:52:31;;;;;;;3.47;3.17;;;;;;;24.07;51.09;98269.34;8416752;28;20212;-64
2021/06/09 15:56:34;;;;;;;3.40;3.00;;;;;;;24.05;51.37;98278.41;8416437;28;20266;-64
2021/06/09 16:00:37;;;;;;;4.40;3.47;;;;;;;24.02;51.29;98276.88;8416359;28;20455;-64
2021/06/09 16:04:41;;;;;;;4.00;3.57;;;;;;;23.96;51.72;98278.28;8416327;28;20199;-64
2021/06/09 16:08:43;;;;;;;6.33;3.20;;;;;;;23.84;50.54;98278.59;8415909;28;20247;-64
2021/06/09 16:12:45;;;;;;;3.57;3.23;;;;;;;23.87;51.38;98294.19;8416185;28;20203;-64
2021/06/09 16:16:48;;;;;;;3.83;3.40;;;;;;;23.82;51.70;98294.63;8415864;28;20199;-64
2021/06/09 16:20:52;;;;;;;3.83;3.43;;;;;;;23.80;51.86;98301.88;8415361;28;20230;-63
2021/06/09 16:24:56;;;;;;;4.20;3.90;;;;;;;23.78;52.26;98314.38;8415764;28;20203;-63
2021/06/09 16:28:59;;;;;;;3.90;3.60;;;;;;;23.81;51.58;98311.47;8415675;28;20212;-63
2021/06/09 16:33:02;;;;;;;4.80;3.97;;;;;;;23.74;51.86;98313.84;8418298;28;20534;-63
2021/06/09 16:37:06;;;;;;;4.70;3.97;;;;;;;23.65;53.40;98324.44;8426966;28;20199;-64
2021/06/09 16:41:08;;;;;;;7.57;4.23;;;;;;;23.58;54.68;98322.34;8418104;28;20224;-63
2021/06/09 16:45:12;;;;;;;4.67;4.10;;;;;;;23.54;56.27;98318.31;8360099;28;20518;-63
2021/06/09 16:49:16;;;;;;;8.97;5.10;;;;;;;23.61;57.52;98316.78;8360218;28;20200;-63
2021/06/09 16:53:20;;;;;;;6.83;5.00;;;;;;;23.94;57.40;98314.63;8360268;28;20322;-63
2021/06/09 17:01:42;;;;;;;17.03;10.73;;;;;;;24.30;56.61;98312.13;8360172;28;20564;-63
2021/06/09 17:05:46;;;;;;;6.20;5.60;;;;;;;24.27;55.91;98306.28;8360064;28;20220;-63
2021/06/09 17:09:50;;;;;;;38.13;34.30;;;;;;;24.39;55.91;98310.41;8368180;28;20269;-63
2021/06/09 17:13:53;;;;;;;8.37;7.57;;;;;;;24.19;55.51;98305.19;8392474;28;20393;-63
2021/06/09 17:17:56;;;;;;;5.97;5.37;;;;;;;24.27;55.09;98309.75;8393464;28;20202;-63
2021/06/09 17:21:58;;;;;;;8.53;6.90;;;;;;;24.16;54.83;98302.88;8392753;28;20229;-63
2021/06/09 17:26:02;;;;;;;6.20;5.63;;;;;;;24.13;54.94;98305.78;8392911;28;20200;-63
2021/06/09 17:30:05;;;;;;;6.63;5.93;;;;;;;24.08;54.69;98293.97;8392611;28;20389;-63
2021/06/09 17:34:08;;;;;;;8.50;6.00;;;;;;;24.08;54.70;98293.97;8392791;28;20200;-63
2021/06/09 17:38:10;;;;;;;7.20;6.50;;;;;;;24.03;55.54;98290.91;8394976;28;20203;-63
2021/06/09 17:42:14;;;;;;;9.60;6.63;;;;;;;23.94;56.45;98297.94;8426157;28;20229;-63
2021/06/09 17:46:16;;;;;;;7.43;6.73;;;;;;;23.74;56.96;98290.03;8421448;28;20199;-63
2021/06/09 17:50:19;;;;;;;6.70;6.03;;;;;;;23.75;56.98;98289.03;8420248;28;20213;-63
2021/06/09 17:54:22;;;;;;;6.87;5.10;;;;;;;23.66;57.28;98284.59;8420706;28;20199;-63
2021/06/09 17:58:27;;;;;;;7.17;6.40;;;;;;;23.56;57.76;98287.28;8420148;28;20213;-64
2021/06/09 18:03:03;;;;;;;9.40;6.80;;;;;;;23.55;58.40;98287.41;8420333;28;20250;-63
2021/06/09 18:07:05;;;;;;;11.07;6.83;;;;;;;23.40;59.00;98289.69;8419822;28;20413;-63
2021/06/09 18:11:07;;;;;;;8.30;7.00;;;;;;;23.26;59.73;98292.75;8418074;28;20398;-63
2021/06/09 18:15:12;;;;;;;7.17;6.10;;;;;;;23.25;59.50;98294.56;8353157;28;20208;-64
2021/06/09 18:19:14;;;;;;;33.87;13.27;;;;;;;23.14;60.41;98298.19;8353120;28;20208;-63
2021/06/09 18:23:16;;;;;;;12.43;7.37;;;;;;;23.15;60.33;98302.50;8366084;28;20250;-64
2021/06/09 18:27:19;;;;;;;10.47;6.50;;;;;;;23.09;60.44;98308.31;8385716;28;20208;-64
2021/06/09 18:31:23;;;;;;;7.73;6.93;;;;;;;23.03;60.81;98300.97;8385932;28;20203;-64
2021/06/09 18:35:26;;;;;;;7.37;6.63;;;;;;;23.00;61.10;98309.97;8386109;28;20211;-64
2021/06/09 18:39:29;;;;;;;7.00;6.40;;;;;;;22.92;61.35;98315.09;8398598;28;20206;-64
2021/06/09 18:43:32;;;;;;;8.50;7.30;;;;;;;22.85;62.13;98311.34;8418661;28;20222;-64
2021/06/09 18:47:36;;;;;;;7.97;6.23;;;;;;;22.83;61.78;98314.13;8418720;28;20506;-64
2021/06/09 18:51:40;;;;;;;7.33;6.60;;;;;;;22.81;61.83;98321.34;8418484;28;20225;-64
2021/06/09 18:55:43;;;;;;;7.30;6.60;;;;;;;22.79;61.77;98331.22;8417860;28;20214;-64
2021/06/09 18:59:46;;;;;;;7.07;6.37;;;;;;;22.67;62.19;98336.75;8417816;28;20202;-64
2021/06/09 19:03:50;;;;;;;8.20;6.50;;;;;;;22.67;62.11;98331.47;8418125;28;20230;-65